createdAt,value
2018-08-03T00:01:43.886Z,91.80
2018-08-03T00:04:13.071Z,91.80
2018-08-03T00:06:42.252Z,91.80
2018-08-03T00:09:11.579Z,91.80
2018-08-03T00:11:40.851Z,91.80
2018-08-03T00:14:09.986Z,91.80
2018-08-03T00:16:39.306Z,92.00
2018-08-03T00:21:37.212Z,92.00
2018-08-03T00:24:06.513Z,92.00
2018-08-03T00:26:35.706Z,91.90
2018-08-03T00:29:05.205Z,91.80
2018-08-03T00:31:34.426Z,91.90
2018-08-03T00:34:03.787Z,91.90
2018-08-03T00:39:01.988Z,92.00
2018-08-03T00:44:00.066Z,92.10
2018-08-03T00:46:29.266Z,92.10
2018-08-03T00:51:27.285Z,91.90
2018-08-03T00:53:56.664Z,91.90
2018-08-03T00:56:26.096Z,92.00
2018-08-03T00:58:55.283Z,92.10
2018-08-03T01:01:24.496Z,92.20
2018-08-03T01:03:53.786Z,92.20
2018-08-03T01:06:23.026Z,92.20
2018-08-03T01:08:52.340Z,92.30
2018-08-03T01:11:21.600Z,92.30
2018-08-03T01:13:51.020Z,92.70
2018-08-03T01:16:20.367Z,92.40
2018-08-03T01:21:18.386Z,92.50
2018-08-03T01:23:47.746Z,92.50
2018-08-03T01:26:17.017Z,92.50
2018-08-03T01:28:46.246Z,92.50
2018-08-03T01:31:15.493Z,92.50
2018-08-03T01:33:44.726Z,92.60
2018-08-03T01:36:13.920Z,92.60
2018-08-03T01:38:43.224Z,92.70
2018-08-03T01:41:12.506Z,92.80
2018-08-03T01:43:41.868Z,92.90
2018-08-03T01:46:11.162Z,92.90
2018-08-03T01:48:40.372Z,92.90
2018-08-03T01:51:09.811Z,93.00
2018-08-03T01:53:39.050Z,93.00
2018-08-03T01:56:08.368Z,93.00
2018-08-03T01:58:37.685Z,93.00
2018-08-03T02:01:07.105Z,93.10
2018-08-03T02:03:36.410Z,93.20
2018-08-03T02:06:05.581Z,93.30
2018-08-03T02:08:34.820Z,93.50
2018-08-03T02:11:04.066Z,93.30
2018-08-03T02:13:33.495Z,93.30
2018-08-03T02:16:02.792Z,93.30
2018-08-03T02:18:32.067Z,93.30
2018-08-03T02:21:01.356Z,93.40
2018-08-03T02:23:31.592Z,93.40
2018-08-03T02:26:00.784Z,93.50
2018-08-03T02:28:30.066Z,93.40
2018-08-03T02:30:59.260Z,93.40
2018-08-03T02:33:28.697Z,93.40
2018-08-03T02:35:58.167Z,93.30
2018-08-03T02:38:27.489Z,93.30
2018-08-03T02:40:56.817Z,93.30
2018-08-03T02:43:26.063Z,93.30
2018-08-03T02:45:55.326Z,93.30
2018-08-03T02:48:24.607Z,93.30
2018-08-03T02:50:53.932Z,93.30
2018-08-03T02:53:23.179Z,93.30
2018-08-03T02:55:52.361Z,93.20
2018-08-03T02:58:21.673Z,93.30
2018-08-03T03:00:51.084Z,93.20
2018-08-03T03:03:20.346Z,93.30
2018-08-03T03:05:49.676Z,93.30
2018-08-03T03:08:18.951Z,93.30
2018-08-03T03:10:48.245Z,93.30
2018-08-03T03:13:17.450Z,93.40
2018-08-03T03:15:46.709Z,93.30
2018-08-03T03:18:15.985Z,93.30
2018-08-03T03:23:14.002Z,93.40
2018-08-03T03:25:43.343Z,93.30
2018-08-03T03:28:12.571Z,93.30
2018-08-03T03:33:12.223Z,93.20
2018-08-03T03:35:41.546Z,93.20
2018-08-03T03:38:10.891Z,93.30
2018-08-03T03:40:40.198Z,93.30
2018-08-03T03:43:09.386Z,93.30
2018-08-03T03:45:38.607Z,93.30
2018-08-03T03:48:07.946Z,93.30
2018-08-03T03:50:37.258Z,93.30
2018-08-03T03:53:06.608Z,93.20
2018-08-03T03:55:35.892Z,93.30
2018-08-03T03:58:05.166Z,93.30
2018-08-03T04:00:34.574Z,93.30
2018-08-03T04:03:03.846Z,93.20
2018-08-03T04:05:33.231Z,93.30
2018-08-03T04:08:02.505Z,93.30
2018-08-03T04:10:31.705Z,93.30
2018-08-03T04:15:29.614Z,93.30
2018-08-03T04:17:58.946Z,93.40
2018-08-03T04:20:28.263Z,93.40
2018-08-03T04:22:57.531Z,93.50
2018-08-03T04:25:26.735Z,93.50
2018-08-03T04:27:55.945Z,93.40
2018-08-03T04:30:25.146Z,93.30
2018-08-03T04:32:54.369Z,93.30
2018-08-03T04:35:23.649Z,93.30
2018-08-03T04:37:53.286Z,93.30
2018-08-03T04:40:22.626Z,93.30
2018-08-03T04:42:51.813Z,93.20
2018-08-03T04:45:21.086Z,93.20
2018-08-03T04:47:50.223Z,93.20
2018-08-03T04:50:19.482Z,93.20
2018-08-03T04:52:48.773Z,93.10
2018-08-03T04:55:17.974Z,93.20
2018-08-03T04:57:47.286Z,93.30
2018-08-03T05:00:16.647Z,93.30
2018-08-03T05:02:45.980Z,93.30
2018-08-03T05:05:15.257Z,93.30
2018-08-03T05:07:44.546Z,93.40
2018-08-03T05:10:13.806Z,93.40
2018-08-03T05:12:43.099Z,93.40
2018-08-03T05:15:12.407Z,93.40
2018-08-03T05:17:41.628Z,93.40
2018-08-03T05:20:10.860Z,93.40
2018-08-03T05:22:40.066Z,93.20
2018-08-03T05:25:09.329Z,93.10
2018-08-03T05:27:38.510Z,93.30
2018-08-03T05:30:09.354Z,93.50
2018-08-03T05:32:38.772Z,93.50
2018-08-03T05:35:08.860Z,93.40
2018-08-03T05:37:38.206Z,93.30
2018-08-03T05:40:07.546Z,93.20
2018-08-03T05:42:36.915Z,93.10
2018-08-03T05:45:07.301Z,92.90
2018-08-03T05:47:37.760Z,93.00
2018-08-03T05:50:07.438Z,92.80
2018-08-03T05:52:36.770Z,92.80
2018-08-03T05:55:06.124Z,92.80
2018-08-03T05:57:35.380Z,92.60
2018-08-03T06:00:05.332Z,92.60
2018-08-03T06:02:34.668Z,92.70
2018-08-03T06:05:04.035Z,92.60
2018-08-03T06:07:33.360Z,92.40
2018-08-03T06:10:02.642Z,92.30
2018-08-03T06:15:00.876Z,91.80
2018-08-03T06:17:30.203Z,91.60
2018-08-03T06:19:59.408Z,91.50
2018-08-03T06:22:28.705Z,91.30
2018-08-03T06:24:57.957Z,91.20
2018-08-03T06:27:27.190Z,91.30
2018-08-03T06:29:56.492Z,91.10
2018-08-03T06:32:25.747Z,90.90
2018-08-03T06:34:54.982Z,90.90
2018-08-03T06:37:24.285Z,90.50
2018-08-03T06:39:53.423Z,90.40
2018-08-03T06:42:22.659Z,90.10
2018-08-03T06:44:51.756Z,90.00
2018-08-03T06:47:20.964Z,90.00
2018-08-03T06:49:50.245Z,89.50
2018-08-03T06:54:48.306Z,88.60
2018-08-03T06:57:17.432Z,88.60
2018-08-03T06:59:46.638Z,88.30
2018-08-03T07:02:15.850Z,88.40
2018-08-03T07:04:45.039Z,87.40
2018-08-03T07:07:14.248Z,86.30
2018-08-03T07:09:43.514Z,86.70
2018-08-03T07:12:12.806Z,85.60
2018-08-03T07:14:42.079Z,83.10
2018-08-03T07:17:11.308Z,82.00
2018-08-03T07:22:09.287Z,80.10
2018-08-03T07:24:38.653Z,77.10
2018-08-03T07:27:08.034Z,77.90
2018-08-03T07:29:37.246Z,78.40
2018-08-03T07:32:06.583Z,78.00
2018-08-03T07:34:35.775Z,77.30
2018-08-03T07:37:05.035Z,76.60
2018-08-03T07:39:34.267Z,76.70
2018-08-03T07:42:03.567Z,73.80
2018-08-03T07:44:32.790Z,75.10
2018-08-03T07:47:01.996Z,74.80
2018-08-03T07:51:59.959Z,73.60
2018-08-03T07:56:57.991Z,72.80
2018-08-03T07:59:27.176Z,72.40
2018-08-03T08:01:56.402Z,71.80
2018-08-03T08:04:28.199Z,71.20
2018-08-03T08:06:57.392Z,72.50
2018-08-03T08:09:26.651Z,71.60
2018-08-03T08:11:56.024Z,72.10
2018-08-03T08:14:25.424Z,72.20
2018-08-03T08:16:54.628Z,70.60
2018-08-03T08:19:23.926Z,68.30
2018-08-03T08:21:53.125Z,68.30
2018-08-03T08:24:22.609Z,69.30
2018-08-03T08:26:51.897Z,66.30
2018-08-03T08:29:21.292Z,66.40
2018-08-03T08:31:50.618Z,65.30
2018-08-03T08:34:19.939Z,66.60
2018-08-03T08:36:49.262Z,66.40
2018-08-03T08:39:18.586Z,67.20
2018-08-03T08:41:47.949Z,67.10
2018-08-03T08:44:17.258Z,65.80
2018-08-03T08:46:46.716Z,66.60
2018-08-03T08:49:15.942Z,66.60
2018-08-03T08:51:45.341Z,67.20
2018-08-03T08:54:14.650Z,68.00
2018-08-03T08:56:43.789Z,67.30
2018-08-03T08:59:13.046Z,68.80
2018-08-03T09:01:45.192Z,68.40
2018-08-03T09:04:14.460Z,67.60
2018-08-03T09:06:43.751Z,65.80
2018-08-03T09:09:13.025Z,64.20
2018-08-03T09:14:11.030Z,60.00
2018-08-03T09:16:40.507Z,61.40
2018-08-03T09:19:09.877Z,60.30
2018-08-03T09:21:39.114Z,56.50
2018-08-03T09:24:08.365Z,55.60
2018-08-03T09:26:37.601Z,56.10
2018-08-03T09:29:06.927Z,57.30
2018-08-03T09:34:06.157Z,58.10
2018-08-03T09:36:35.722Z,57.50
2018-08-03T09:39:07.029Z,54.90
2018-08-03T09:41:36.321Z,54.80
2018-08-03T09:44:05.877Z,55.10
2018-08-03T09:49:04.536Z,55.10
2018-08-03T09:51:33.974Z,53.30
2018-08-03T09:54:03.310Z,49.90
2018-08-03T09:56:32.612Z,51.50
2018-08-03T09:59:02.108Z,52.80
2018-08-03T10:01:31.407Z,53.10
2018-08-03T10:04:01.241Z,49.70
2018-08-03T10:06:30.493Z,52.40
2018-08-03T10:08:59.700Z,52.90
2018-08-03T10:11:28.957Z,46.40
2018-08-03T10:13:58.122Z,48.90
2018-08-03T10:16:27.448Z,50.10
2018-08-03T10:18:56.780Z,50.60
2018-08-03T10:21:26.081Z,48.00
2018-08-03T10:23:55.387Z,48.20
2018-08-03T10:26:24.781Z,47.20
2018-08-03T10:28:54.597Z,45.80
2018-08-03T10:31:23.977Z,46.90
2018-08-03T10:33:53.523Z,45.40
2018-08-03T10:36:22.833Z,43.60
2018-08-03T10:38:52.253Z,45.80
2018-08-03T10:41:21.477Z,43.60
2018-08-03T10:43:50.971Z,43.40
2018-08-03T10:46:20.563Z,46.00
2018-08-03T10:48:49.980Z,43.20
2018-08-03T10:51:19.237Z,43.50
2018-08-03T10:53:49.982Z,40.60
2018-08-03T10:58:48.045Z,42.60
2018-08-03T11:01:17.263Z,41.90
2018-08-03T11:03:46.489Z,41.40
2018-08-03T11:06:15.844Z,39.30
2018-08-03T11:08:45.166Z,39.40
2018-08-03T11:11:14.547Z,37.70
2018-08-03T11:13:43.786Z,37.30
2018-08-03T11:16:13.448Z,38.10
2018-08-03T11:18:42.707Z,40.70
2018-08-03T11:21:12.023Z,40.60
2018-08-03T11:23:41.304Z,37.80
2018-08-03T11:26:10.585Z,39.90
2018-08-03T11:28:39.814Z,41.10
2018-08-03T11:31:09.093Z,40.20
2018-08-03T11:33:38.322Z,38.60
2018-08-03T11:36:07.536Z,36.30
2018-08-03T11:38:36.792Z,35.80
2018-08-03T11:41:06.193Z,36.70
2018-08-03T11:43:35.506Z,37.60
2018-08-03T11:46:04.889Z,37.60
2018-08-03T11:48:34.278Z,34.80
2018-08-03T11:51:03.507Z,38.40
2018-08-03T11:53:32.760Z,39.00
2018-08-03T11:56:01.966Z,36.70
2018-08-03T11:58:31.293Z,36.50
2018-08-03T12:01:00.703Z,35.00
2018-08-03T12:03:30.126Z,35.60
2018-08-03T12:05:59.458Z,36.70
2018-08-03T12:08:29.033Z,34.40
2018-08-03T12:11:04.465Z,36.70
2018-08-03T12:13:33.846Z,36.10
2018-08-03T12:16:03.200Z,38.80
2018-08-03T12:18:32.594Z,37.20
2018-08-03T12:21:01.906Z,35.70
2018-08-03T12:23:31.382Z,37.00
2018-08-03T12:26:00.724Z,36.20
2018-08-03T12:28:30.029Z,34.60
2018-08-03T12:30:59.423Z,35.70
2018-08-03T12:33:28.799Z,36.80
2018-08-03T12:35:58.350Z,34.40
2018-08-03T12:38:27.722Z,34.60
2018-08-03T12:40:57.024Z,34.20
2018-08-03T12:43:26.374Z,34.70
2018-08-03T12:45:55.621Z,34.30
2018-08-03T12:48:24.894Z,32.00
2018-08-03T12:50:54.260Z,34.40
2018-08-03T12:53:23.540Z,34.10
2018-08-03T12:55:52.805Z,32.20
2018-08-03T12:58:22.195Z,33.00
2018-08-03T13:03:20.393Z,34.00
2018-08-03T13:05:49.727Z,33.20
2018-08-03T13:08:19.115Z,33.50
2018-08-03T13:10:48.396Z,32.20
2018-08-03T13:13:17.658Z,33.30
2018-08-03T13:15:46.991Z,32.80
2018-08-03T13:18:16.462Z,33.20
2018-08-03T13:20:45.790Z,30.50
2018-08-03T13:23:14.999Z,29.90
2018-08-03T13:25:44.273Z,28.90
2018-08-03T13:28:13.989Z,29.00
2018-08-03T13:30:43.340Z,29.60
2018-08-03T13:33:12.665Z,28.90
2018-08-03T13:35:41.808Z,27.50
2018-08-03T13:38:11.062Z,27.40
2018-08-03T13:40:40.442Z,27.70
2018-08-03T13:43:09.794Z,27.70
2018-08-03T13:45:39.171Z,28.80
2018-08-03T13:48:08.315Z,28.40
2018-08-03T13:50:37.775Z,27.40
2018-08-03T13:53:07.195Z,26.90
2018-08-03T13:55:36.499Z,29.80
2018-08-03T13:58:05.764Z,29.80
2018-08-03T14:00:35.105Z,26.20
2018-08-03T14:03:04.470Z,28.40
2018-08-03T14:05:33.707Z,27.70
2018-08-03T14:08:02.931Z,26.70
2018-08-03T14:10:32.200Z,25.70
2018-08-03T14:13:01.509Z,24.30
2018-08-03T14:15:30.896Z,25.10
2018-08-03T14:18:00.217Z,23.90
2018-08-03T14:20:29.567Z,25.80
2018-08-03T14:22:58.824Z,25.60
2018-08-03T14:25:28.192Z,25.30
2018-08-03T14:27:57.534Z,23.40
2018-08-03T14:30:26.919Z,25.50
2018-08-03T14:32:56.277Z,26.20
2018-08-03T14:35:25.395Z,24.30
2018-08-03T14:37:54.678Z,23.60
2018-08-03T14:40:23.993Z,25.60
2018-08-03T14:42:53.183Z,23.30
2018-08-03T14:45:22.451Z,23.90
2018-08-03T14:47:51.574Z,23.10
2018-08-03T14:50:20.976Z,24.20
2018-08-03T14:52:50.305Z,24.60
2018-08-03T14:55:19.545Z,25.90
2018-08-03T14:57:48.738Z,24.20
2018-08-03T15:00:17.865Z,25.20
2018-08-03T15:02:47.106Z,25.00
2018-08-03T15:05:16.403Z,24.50
2018-08-03T15:07:45.555Z,25.40
2018-08-03T15:10:14.873Z,24.60
2018-08-03T15:12:44.066Z,25.40
2018-08-03T15:15:13.437Z,24.70
2018-08-03T15:17:42.628Z,25.20
2018-08-03T15:22:41.126Z,26.20
2018-08-03T15:25:10.690Z,26.00
2018-08-03T15:27:39.880Z,26.20
2018-08-03T15:30:10.799Z,25.70
2018-08-03T15:32:40.048Z,26.30
2018-08-03T15:35:09.348Z,25.90
2018-08-03T15:37:38.604Z,27.20
2018-08-03T15:40:08.784Z,26.30
2018-08-03T15:45:08.094Z,26.40
2018-08-03T15:47:37.372Z,26.40
2018-08-03T15:50:07.247Z,27.30
2018-08-03T15:52:36.535Z,26.80
2018-08-03T15:55:06.074Z,26.30
2018-08-03T15:57:35.450Z,26.60
2018-08-03T16:00:05.475Z,26.90
2018-08-03T16:02:34.830Z,26.50
2018-08-03T16:05:11.026Z,27.00
2018-08-03T16:07:40.314Z,27.50
2018-08-03T16:10:09.674Z,28.70
2018-08-03T16:12:39.031Z,30.00
2018-08-03T16:15:08.351Z,31.90
2018-08-03T16:17:37.534Z,33.90
2018-08-03T16:20:06.726Z,36.20
2018-08-03T16:22:36.090Z,38.20
2018-08-03T16:25:06.379Z,39.40
2018-08-03T16:27:35.701Z,41.40
2018-08-03T16:30:05.512Z,42.90
2018-08-03T16:32:34.728Z,44.00
2018-08-03T16:35:04.077Z,45.60
2018-08-03T16:37:33.902Z,46.30
2018-08-03T16:40:03.149Z,47.70
2018-08-03T16:42:32.319Z,48.70
2018-08-03T16:45:01.604Z,49.40
2018-08-03T16:47:30.887Z,50.30
2018-08-03T16:50:00.257Z,50.90
2018-08-03T16:52:29.482Z,51.60
2018-08-03T16:54:58.920Z,53.40
2018-08-03T16:57:28.371Z,53.30
2018-08-03T16:59:57.562Z,54.60
2018-08-03T17:02:27.301Z,55.60
2018-08-03T17:04:56.666Z,56.00
2018-08-03T17:07:25.990Z,56.10
2018-08-03T17:09:55.206Z,56.50
2018-08-03T17:12:24.580Z,56.60
2018-08-03T17:14:53.886Z,56.70
2018-08-03T17:17:23.290Z,57.70
2018-08-03T17:19:52.590Z,57.30
2018-08-03T17:22:22.140Z,57.80
2018-08-03T17:24:51.499Z,57.90
2018-08-03T17:27:20.847Z,58.10
2018-08-03T17:29:50.161Z,58.60
2018-08-03T17:32:19.505Z,58.60
2018-08-03T17:37:17.556Z,59.10
2018-08-03T17:39:46.977Z,59.00
2018-08-03T17:42:16.212Z,59.00
2018-08-03T17:44:45.603Z,59.40
2018-08-03T17:47:14.922Z,59.50
2018-08-03T17:49:44.173Z,60.30
2018-08-03T17:52:13.654Z,60.40
2018-08-03T17:54:44.056Z,61.20
2018-08-03T17:57:13.307Z,62.80
2018-08-03T17:59:47.361Z,63.20
2018-08-03T18:02:16.648Z,63.50
2018-08-03T18:04:45.868Z,64.60
2018-08-03T18:07:15.189Z,66.40
2018-08-03T18:09:44.532Z,65.10
2018-08-03T18:12:13.777Z,65.20
2018-08-03T18:14:43.063Z,65.20
2018-08-03T18:17:12.444Z,65.40
2018-08-03T18:19:41.636Z,65.20
2018-08-03T18:22:10.926Z,65.60
2018-08-03T18:24:40.162Z,65.50
2018-08-03T18:27:09.405Z,66.40
2018-08-03T18:29:38.647Z,66.70
2018-08-03T18:32:07.868Z,66.70
2018-08-03T18:34:37.195Z,68.10
2018-08-03T18:37:06.480Z,68.10
2018-08-03T18:39:35.708Z,68.10
2018-08-03T18:42:05.026Z,68.20
2018-08-03T18:44:34.305Z,69.10
2018-08-03T18:47:03.542Z,68.50
2018-08-03T18:49:32.743Z,68.70
2018-08-03T18:52:02.038Z,69.00
2018-08-03T18:54:31.401Z,69.00
2018-08-03T18:57:00.722Z,69.40
2018-08-03T18:59:29.879Z,70.20
2018-08-03T19:01:59.091Z,70.70
2018-08-03T19:04:28.377Z,70.50
2018-08-03T19:06:57.597Z,70.40
2018-08-03T19:09:26.883Z,70.80
2018-08-03T19:11:56.206Z,71.30
2018-08-03T19:14:25.431Z,72.00
2018-08-03T19:16:54.842Z,72.40
2018-08-03T19:19:24.141Z,72.80
2018-08-03T19:21:53.497Z,73.20
2018-08-03T19:24:22.722Z,73.50
2018-08-03T19:26:51.883Z,73.50
2018-08-03T19:29:21.306Z,73.70
2018-08-03T19:31:50.586Z,74.40
2018-08-03T19:34:19.986Z,75.00
2018-08-03T19:36:49.601Z,75.00
2018-08-03T19:39:20.592Z,75.80
2018-08-03T19:41:49.939Z,76.20
2018-08-03T19:44:19.336Z,76.40
2018-08-03T19:46:48.668Z,76.20
2018-08-03T19:49:17.884Z,76.10
2018-08-03T19:51:47.120Z,76.60
2018-08-03T19:54:16.482Z,76.80
2018-08-03T19:56:45.998Z,77.00
2018-08-03T19:59:15.261Z,76.90
2018-08-03T20:01:44.404Z,76.70
2018-08-03T20:04:13.791Z,76.60
2018-08-03T20:06:42.961Z,76.60
2018-08-03T20:09:13.105Z,76.90
2018-08-03T20:11:42.267Z,77.80
2018-08-03T20:14:11.485Z,78.20
2018-08-03T20:16:43.070Z,79.00
2018-08-03T20:19:12.444Z,79.00
2018-08-03T20:21:41.826Z,79.20
2018-08-03T20:24:11.065Z,78.80
2018-08-03T20:26:40.698Z,78.80
2018-08-03T20:29:09.891Z,79.60
2018-08-03T20:31:39.126Z,80.00
2018-08-03T20:34:08.434Z,80.00
2018-08-03T20:36:37.743Z,80.30
2018-08-03T20:39:09.416Z,80.60
2018-08-03T20:41:38.655Z,80.80
2018-08-03T20:44:08.072Z,81.00
2018-08-03T20:46:37.689Z,81.20
2018-08-03T20:49:07.814Z,81.00
2018-08-03T20:51:37.015Z,81.30
2018-08-03T20:54:06.364Z,81.40
2018-08-03T20:56:35.726Z,81.40
2018-08-03T20:59:05.007Z,81.70
2018-08-03T21:01:34.236Z,82.30
2018-08-03T21:04:03.608Z,82.60
2018-08-03T21:06:32.896Z,83.10
2018-08-03T21:09:02.196Z,83.70
2018-08-03T21:11:31.564Z,83.80
2018-08-03T21:14:01.139Z,83.40
2018-08-03T21:16:30.533Z,83.90
2018-08-03T21:19:00.180Z,84.10
2018-08-03T21:21:29.586Z,84.40
2018-08-03T21:23:58.898Z,84.80
2018-08-03T21:26:28.469Z,85.30
2018-08-03T21:28:58.248Z,85.70
2018-08-03T21:31:27.524Z,85.80
2018-08-03T21:33:56.863Z,86.20
2018-08-03T21:38:55.246Z,86.60
2018-08-03T21:41:24.690Z,86.50
2018-08-03T21:43:54.044Z,86.40
2018-08-03T21:46:23.282Z,86.50
2018-08-03T21:48:56.600Z,86.30
2018-08-03T21:51:25.813Z,87.00
2018-08-03T21:53:55.099Z,87.30
2018-08-03T21:56:24.437Z,87.30
2018-08-03T21:58:53.642Z,87.40
2018-08-03T22:01:23.840Z,87.50
2018-08-03T22:03:53.041Z,87.90
2018-08-03T22:06:22.383Z,87.60
2018-08-03T22:08:51.797Z,87.70
2018-08-03T22:11:20.990Z,87.60
2018-08-03T22:13:50.338Z,87.40
2018-08-03T22:16:19.580Z,87.50
2018-08-03T22:18:48.995Z,87.50
2018-08-03T22:21:18.318Z,87.30
2018-08-03T22:23:47.614Z,87.20
2018-08-03T22:26:16.855Z,87.20
2018-08-03T22:28:46.043Z,87.10
2018-08-03T22:31:15.326Z,87.50
2018-08-03T22:33:44.628Z,87.60
2018-08-03T22:36:14.253Z,87.40
2018-08-03T22:38:43.602Z,87.30
2018-08-03T22:41:12.986Z,87.20
2018-08-03T22:43:42.690Z,87.00
2018-08-03T22:46:12.002Z,87.90
2018-08-03T22:48:41.303Z,87.20
2018-08-03T22:51:10.497Z,86.90
2018-08-03T22:53:39.648Z,86.90
2018-08-03T22:56:08.879Z,86.80
2018-08-03T22:58:38.156Z,86.90
2018-08-03T23:01:07.604Z,87.50
2018-08-03T23:03:36.820Z,88.10
2018-08-03T23:06:06.131Z,88.30
2018-08-03T23:08:35.449Z,88.60
2018-08-03T23:11:04.745Z,88.60
2018-08-03T23:13:33.922Z,88.80
2018-08-03T23:16:03.203Z,89.10
2018-08-03T23:18:32.525Z,89.20
2018-08-03T23:21:01.768Z,89.50
2018-08-03T23:23:30.902Z,90.00
2018-08-03T23:28:28.775Z,90.00
2018-08-03T23:30:58.090Z,90.00
2018-08-03T23:33:27.412Z,90.10
2018-08-03T23:35:56.551Z,90.20
2018-08-03T23:38:25.839Z,90.00
2018-08-03T23:40:55.033Z,89.90
2018-08-03T23:43:24.285Z,90.00
2018-08-03T23:48:22.278Z,89.60
2018-08-03T23:53:20.083Z,90.00
2018-08-03T23:55:49.312Z,90.00
2018-08-03T23:58:18.512Z,89.80
